Weather at Bou Gara Airport [CLOSED]

Public forecast

Using degrees Celsius for public forecast. Weather courtesy of forecast.io.

Closest aviation weather report (METAR) to Bou Gara Airport

Report is more than 6 hours old.

Closest report is Yélimané Airport, 85.1 nm (157.6 km) S. Retrieved 2020/09/04 22:10 UTC (17 days ago):

GAYE 042210Z 00000KT 8000 -RA NSC 26/26 Q1014 RETS

Closest aviation forecast (TAF) to Bou Gara Airport

Forecast is more than 12 hours old.

Closest forecast is Nouakchott International Airport, 310.2 nm (574.4 km) WNW. Retrieved 2016/06/26 18:52 UTC (4 years ago):

TAF GQNN 261700Z 2618/2800 28010KT 6000 NSC BECMG 2619/2621 BKN008 PROB40 TEMPO 2704/2708 4000 BR BECMG 2709/2711 FEW010